sensor_id;sensor_type;location;lat;lon;timestamp;P1;durP1;ratioP1;P2;durP2;ratioP2
60076;SDS011;45950;45.208;20.374;2023-09-19T00:00:58;6.03;;;3.67;;
60076;SDS011;45950;45.208;20.374;2023-09-19T00:03:26;6.90;;;3.70;;
60076;SDS011;45950;45.208;20.374;2023-09-19T00:05:53;7.60;;;3.58;;
60076;SDS011;45950;45.208;20.374;2023-09-19T00:08:20;8.80;;;4.03;;
60076;SDS011;45950;45.208;20.374;2023-09-19T00:10:50;9.48;;;4.10;;
60076;SDS011;45950;45.208;20.374;2023-09-19T00:13:16;6.20;;;3.90;;
60076;SDS011;45950;45.208;20.374;2023-09-19T00:15:44;8.38;;;3.97;;
60076;SDS011;45950;45.208;20.374;2023-09-19T00:18:13;6.05;;;3.63;;
60076;SDS011;45950;45.208;20.374;2023-09-19T00:20:42;7.75;;;4.13;;
60076;SDS011;45950;45.208;20.374;2023-09-19T00:23:12;6.60;;;4.32;;
60076;SDS011;45950;45.208;20.374;2023-09-19T00:25:39;6.57;;;3.90;;
60076;SDS011;45950;45.208;20.374;2023-09-19T00:28:07;7.30;;;3.97;;
60076;SDS011;45950;45.208;20.374;2023-09-19T00:30:34;6.18;;;3.53;;
60076;SDS011;45950;45.208;20.374;2023-09-19T00:33:03;6.78;;;4.28;;
60076;SDS011;45950;45.208;20.374;2023-09-19T00:35:31;4.78;;;3.75;;
60076;SDS011;45950;45.208;20.374;2023-09-19T00:37:59;4.95;;;3.85;;
60076;SDS011;45950;45.208;20.374;2023-09-19T00:40:26;5.63;;;3.63;;
60076;SDS011;45950;45.208;20.374;2023-09-19T00:42:56;7.88;;;4.00;;
60076;SDS011;45950;45.208;20.374;2023-09-19T00:45:24;5.45;;;4.00;;
60076;SDS011;45950;45.208;20.374;2023-09-19T00:47:51;10.00;;;4.65;;
60076;SDS011;45950;45.208;20.374;2023-09-19T00:50:19;5.65;;;3.60;;
60076;SDS011;45950;45.208;20.374;2023-09-19T00:52:46;10.50;;;4.22;;
60076;SDS011;45950;45.208;20.374;2023-09-19T00:55:16;8.57;;;4.47;;
60076;SDS011;45950;45.208;20.374;2023-09-19T00:57:44;6.82;;;4.10;;
60076;SDS011;45950;45.208;20.374;2023-09-19T01:00:12;7.22;;;4.03;;
60076;SDS011;45950;45.208;20.374;2023-09-19T01:02:41;7.68;;;4.95;;
60076;SDS011;45950;45.208;20.374;2023-09-19T01:05:08;6.47;;;4.65;;
60076;SDS011;45950;45.208;20.374;2023-09-19T01:07:35;7.47;;;3.85;;
60076;SDS011;45950;45.208;20.374;2023-09-19T01:10:04;6.80;;;4.38;;
60076;SDS011;45950;45.208;20.374;2023-09-19T01:12:48;9.32;;;4.78;;
60076;SDS011;45950;45.208;20.374;2023-09-19T01:15:17;7.20;;;4.07;;
60076;SDS011;45950;45.208;20.374;2023-09-19T01:17:48;7.70;;;4.07;;
60076;SDS011;45950;45.208;20.374;2023-09-19T01:20:21;6.55;;;4.30;;
60076;SDS011;45950;45.208;20.374;2023-09-19T01:22:53;6.93;;;4.28;;
60076;SDS011;45950;45.208;20.374;2023-09-19T01:25:40;7.03;;;4.40;;
60076;SDS011;45950;45.208;20.374;2023-09-19T01:28:24;33.67;;;6.45;;
60076;SDS011;45950;45.208;20.374;2023-09-19T01:30:57;7.43;;;4.45;;
60076;SDS011;45950;45.208;20.374;2023-09-19T01:33:25;8.60;;;4.00;;
60076;SDS011;45950;45.208;20.374;2023-09-19T01:38:54;7.72;;;4.38;;
60076;SDS011;45950;45.208;20.374;2023-09-19T01:41:24;7.38;;;4.57;;
60076;SDS011;45950;45.208;20.374;2023-09-19T01:43:52;7.13;;;4.93;;
60076;SDS011;45950;45.208;20.374;2023-09-19T01:46:21;7.25;;;4.78;;
60076;SDS011;45950;45.208;20.374;2023-09-19T01:48:49;8.32;;;4.47;;
60076;SDS011;45950;45.208;20.374;2023-09-19T01:51:29;7.30;;;4.68;;
60076;SDS011;45950;45.208;20.374;2023-09-19T01:54:01;8.48;;;5.18;;
60076;SDS011;45950;45.208;20.374;2023-09-19T01:56:32;6.13;;;4.82;;
60076;SDS011;45950;45.208;20.374;2023-09-19T01:59:02;6.85;;;4.55;;
60076;SDS011;45950;45.208;20.374;2023-09-19T02:01:31;10.18;;;4.50;;
60076;SDS011;45950;45.208;20.374;2023-09-19T02:03:58;7.50;;;4.43;;
60076;SDS011;45950;45.208;20.374;2023-09-19T02:06:25;6.13;;;4.72;;
60076;SDS011;45950;45.208;20.374;2023-09-19T02:08:52;6.93;;;5.05;;
60076;SDS011;45950;45.208;20.374;2023-09-19T02:11:20;5.55;;;4.88;;
60076;SDS011;45950;45.208;20.374;2023-09-19T02:13:47;7.18;;;5.03;;
60076;SDS011;45950;45.208;20.374;2023-09-19T02:16:18;6.63;;;5.10;;
60076;SDS011;45950;45.208;20.374;2023-09-19T02:18:47;6.93;;;5.20;;
60076;SDS011;45950;45.208;20.374;2023-09-19T02:21:14;9.70;;;4.97;;
60076;SDS011;45950;45.208;20.374;2023-09-19T02:23:40;9.00;;;4.68;;
60076;SDS011;45950;45.208;20.374;2023-09-19T02:26:07;7.82;;;4.32;;
60076;SDS011;45950;45.208;20.374;2023-09-19T02:28:33;7.97;;;5.00;;
60076;SDS011;45950;45.208;20.374;2023-09-19T02:31:01;8.60;;;4.53;;
60076;SDS011;45950;45.208;20.374;2023-09-19T02:33:28;5.90;;;4.43;;
60076;SDS011;45950;45.208;20.374;2023-09-19T02:35:59;5.75;;;4.32;;
60076;SDS011;45950;45.208;20.374;2023-09-19T02:38:26;9.00;;;5.32;;
60076;SDS011;45950;45.208;20.374;2023-09-19T02:40:52;7.15;;;4.72;;
60076;SDS011;45950;45.208;20.374;2023-09-19T02:43:20;8.38;;;5.20;;
60076;SDS011;45950;45.208;20.374;2023-09-19T02:45:47;9.70;;;5.40;;
60076;SDS011;45950;45.208;20.374;2023-09-19T02:48:14;7.53;;;5.53;;
60076;SDS011;45950;45.208;20.374;2023-09-19T02:50:41;8.23;;;5.15;;
60076;SDS011;45950;45.208;20.374;2023-09-19T02:53:09;7.35;;;5.22;;
60076;SDS011;45950;45.208;20.374;2023-09-19T02:58:24;7.10;;;5.20;;
60076;SDS011;45950;45.208;20.374;2023-09-19T03:00:53;9.07;;;5.22;;
60076;SDS011;45950;45.208;20.374;2023-09-19T03:03:37;7.00;;;5.80;;
60076;SDS011;45950;45.208;20.374;2023-09-19T03:06:05;5.65;;;4.70;;
60076;SDS011;45950;45.208;20.374;2023-09-19T03:08:35;6.63;;;5.72;;
60076;SDS011;45950;45.208;20.374;2023-09-19T03:11:04;6.55;;;5.22;;
60076;SDS011;45950;45.208;20.374;2023-09-19T03:13:33;9.15;;;5.43;;
60076;SDS011;45950;45.208;20.374;2023-09-19T03:16:01;7.00;;;4.82;;
60076;SDS011;45950;45.208;20.374;2023-09-19T03:18:30;7.30;;;5.05;;
60076;SDS011;45950;45.208;20.374;2023-09-19T03:20:57;7.95;;;5.40;;
60076;SDS011;45950;45.208;20.374;2023-09-19T03:23:25;8.07;;;5.57;;
60076;SDS011;45950;45.208;20.374;2023-09-19T03:25:54;9.57;;;5.50;;
60076;SDS011;45950;45.208;20.374;2023-09-19T03:28:21;6.70;;;4.72;;
60076;SDS011;45950;45.208;20.374;2023-09-19T03:30:56;8.55;;;4.72;;
60076;SDS011;45950;45.208;20.374;2023-09-19T03:33:23;6.82;;;4.40;;
60076;SDS011;45950;45.208;20.374;2023-09-19T03:35:51;10.63;;;5.53;;
60076;SDS011;45950;45.208;20.374;2023-09-19T03:38:18;6.38;;;5.03;;
60076;SDS011;45950;45.208;20.374;2023-09-19T03:40:45;6.45;;;4.97;;
60076;SDS011;45950;45.208;20.374;2023-09-19T03:43:13;6.80;;;4.97;;
60076;SDS011;45950;45.208;20.374;2023-09-19T03:45:39;7.85;;;5.32;;
60076;SDS011;45950;45.208;20.374;2023-09-19T03:48:08;6.85;;;5.10;;
60076;SDS011;45950;45.208;20.374;2023-09-19T03:50:34;7.40;;;5.45;;
60076;SDS011;45950;45.208;20.374;2023-09-19T03:53:01;7.82;;;4.93;;
60076;SDS011;45950;45.208;20.374;2023-09-19T03:58:32;6.82;;;5.25;;
60076;SDS011;45950;45.208;20.374;2023-09-19T04:01:03;8.48;;;5.35;;
60076;SDS011;45950;45.208;20.374;2023-09-19T04:03:31;6.60;;;4.93;;
60076;SDS011;45950;45.208;20.374;2023-09-19T04:06:11;7.32;;;5.20;;
60076;SDS011;45950;45.208;20.374;2023-09-19T04:08:38;8.57;;;5.45;;
60076;SDS011;45950;45.208;20.374;2023-09-19T04:11:04;7.28;;;5.13;;
60076;SDS011;45950;45.208;20.374;2023-09-19T04:13:32;7.28;;;5.38;;
60076;SDS011;45950;45.208;20.374;2023-09-19T04:15:59;10.63;;;5.35;;
60076;SDS011;45950;45.208;20.374;2023-09-19T04:18:25;7.65;;;5.03;;
60076;SDS011;45950;45.208;20.374;2023-09-19T04:20:52;6.32;;;5.03;;
60076;SDS011;45950;45.208;20.374;2023-09-19T04:23:19;7.85;;;5.15;;
60076;SDS011;45950;45.208;20.374;2023-09-19T04:25:46;8.05;;;5.05;;
60076;SDS011;45950;45.208;20.374;2023-09-19T04:28:13;8.02;;;5.60;;
60076;SDS011;45950;45.208;20.374;2023-09-19T04:30:42;7.38;;;5.10;;
60076;SDS011;45950;45.208;20.374;2023-09-19T04:33:09;10.07;;;5.47;;
60076;SDS011;45950;45.208;20.374;2023-09-19T04:35:36;10.85;;;5.63;;
60076;SDS011;45950;45.208;20.374;2023-09-19T04:38:04;6.50;;;4.85;;
60076;SDS011;45950;45.208;20.374;2023-09-19T04:40:32;7.13;;;5.43;;
60076;SDS011;45950;45.208;20.374;2023-09-19T04:42:59;7.22;;;4.85;;
60076;SDS011;45950;45.208;20.374;2023-09-19T04:45:26;8.38;;;5.13;;
60076;SDS011;45950;45.208;20.374;2023-09-19T04:47:54;7.25;;;4.78;;
60076;SDS011;45950;45.208;20.374;2023-09-19T04:53:30;8.15;;;4.90;;
60076;SDS011;45950;45.208;20.374;2023-09-19T04:55:56;5.97;;;4.93;;
60076;SDS011;45950;45.208;20.374;2023-09-19T04:58:24;7.00;;;5.30;;
60076;SDS011;45950;45.208;20.374;2023-09-19T05:00:50;9.57;;;5.47;;
60076;SDS011;45950;45.208;20.374;2023-09-19T05:03:18;6.20;;;5.20;;
60076;SDS011;45950;45.208;20.374;2023-09-19T05:05:47;8.02;;;5.05;;
60076;SDS011;45950;45.208;20.374;2023-09-19T05:08:14;6.72;;;5.30;;
60076;SDS011;45950;45.208;20.374;2023-09-19T05:10:40;8.35;;;4.68;;
60076;SDS011;45950;45.208;20.374;2023-09-19T05:13:07;6.95;;;4.95;;
60076;SDS011;45950;45.208;20.374;2023-09-19T05:15:34;6.38;;;5.40;;
60076;SDS011;45950;45.208;20.374;2023-09-19T05:18:01;9.55;;;5.40;;
60076;SDS011;45950;45.208;20.374;2023-09-19T05:20:30;8.02;;;4.50;;
60076;SDS011;45950;45.208;20.374;2023-09-19T05:22:58;6.03;;;4.82;;
60076;SDS011;45950;45.208;20.374;2023-09-19T05:28:25;8.93;;;5.13;;
60076;SDS011;45950;45.208;20.374;2023-09-19T05:30:51;8.35;;;4.95;;
60076;SDS011;45950;45.208;20.374;2023-09-19T05:33:18;8.32;;;4.82;;
60076;SDS011;45950;45.208;20.374;2023-09-19T05:35:46;6.15;;;4.75;;
60076;SDS011;45950;45.208;20.374;2023-09-19T05:38:26;8.00;;;5.55;;
60076;SDS011;45950;45.208;20.374;2023-09-19T05:40:53;6.75;;;4.95;;
60076;SDS011;45950;45.208;20.374;2023-09-19T05:43:19;10.10;;;5.22;;
60076;SDS011;45950;45.208;20.374;2023-09-19T05:45:46;7.22;;;5.47;;
60076;SDS011;45950;45.208;20.374;2023-09-19T05:48:13;5.63;;;4.72;;
60076;SDS011;45950;45.208;20.374;2023-09-19T05:50:41;7.72;;;4.72;;
60076;SDS011;45950;45.208;20.374;2023-09-19T05:55:59;8.15;;;5.35;;
60076;SDS011;45950;45.208;20.374;2023-09-19T05:58:26;9.82;;;5.53;;
60076;SDS011;45950;45.208;20.374;2023-09-19T06:00:53;6.85;;;5.30;;
60076;SDS011;45950;45.208;20.374;2023-09-19T06:03:20;8.93;;;5.88;;
60076;SDS011;45950;45.208;20.374;2023-09-19T06:05:46;8.30;;;5.07;;
60076;SDS011;45950;45.208;20.374;2023-09-19T06:08:14;5.70;;;4.82;;
60076;SDS011;45950;45.208;20.374;2023-09-19T06:10:41;6.55;;;4.72;;
60076;SDS011;45950;45.208;20.374;2023-09-19T06:13:10;7.55;;;5.10;;
60076;SDS011;45950;45.208;20.374;2023-09-19T06:15:36;5.65;;;4.75;;
60076;SDS011;45950;45.208;20.374;2023-09-19T06:18:03;9.30;;;4.72;;
60076;SDS011;45950;45.208;20.374;2023-09-19T06:20:30;7.22;;;4.63;;
60076;SDS011;45950;45.208;20.374;2023-09-19T06:23:12;6.90;;;4.78;;
60076;SDS011;45950;45.208;20.374;2023-09-19T06:25:38;7.13;;;5.35;;
60076;SDS011;45950;45.208;20.374;2023-09-19T06:28:05;6.20;;;4.78;;
60076;SDS011;45950;45.208;20.374;2023-09-19T06:30:44;6.43;;;4.72;;
60076;SDS011;45950;45.208;20.374;2023-09-19T06:33:45;8.60;;;5.90;;
60076;SDS011;45950;45.208;20.374;2023-09-19T06:36:12;6.40;;;5.03;;
60076;SDS011;45950;45.208;20.374;2023-09-19T06:38:38;9.95;;;5.32;;
60076;SDS011;45950;45.208;20.374;2023-09-19T06:41:06;7.10;;;5.53;;
60076;SDS011;45950;45.208;20.374;2023-09-19T06:43:33;10.65;;;5.18;;
60076;SDS011;45950;45.208;20.374;2023-09-19T06:46:00;7.97;;;4.57;;
60076;SDS011;45950;45.208;20.374;2023-09-19T06:48:27;9.75;;;5.22;;
60076;SDS011;45950;45.208;20.374;2023-09-19T06:50:56;11.50;;;5.20;;
60076;SDS011;45950;45.208;20.374;2023-09-19T06:53:34;5.90;;;4.97;;
60076;SDS011;45950;45.208;20.374;2023-09-19T06:56:01;7.05;;;5.18;;
60076;SDS011;45950;45.208;20.374;2023-09-19T07:01:18;8.52;;;5.45;;
60076;SDS011;45950;45.208;20.374;2023-09-19T07:03:44;6.15;;;4.93;;
60076;SDS011;45950;45.208;20.374;2023-09-19T07:06:13;8.93;;;5.70;;
60076;SDS011;45950;45.208;20.374;2023-09-19T07:08:39;7.25;;;5.72;;
60076;SDS011;45950;45.208;20.374;2023-09-19T07:11:06;6.78;;;5.07;;
60076;SDS011;45950;45.208;20.374;2023-09-19T07:13:32;9.55;;;5.70;;
60076;SDS011;45950;45.208;20.374;2023-09-19T07:15:59;6.80;;;4.68;;
60076;SDS011;45950;45.208;20.374;2023-09-19T07:18:25;8.57;;;4.90;;
60076;SDS011;45950;45.208;20.374;2023-09-19T07:20:56;6.00;;;4.72;;
60076;SDS011;45950;45.208;20.374;2023-09-19T07:26:13;6.43;;;5.07;;
60076;SDS011;45950;45.208;20.374;2023-09-19T07:28:39;6.95;;;5.00;;
60076;SDS011;45950;45.208;20.374;2023-09-19T07:31:06;8.60;;;4.80;;
60076;SDS011;45950;45.208;20.374;2023-09-19T07:33:34;6.82;;;4.57;;
60076;SDS011;45950;45.208;20.374;2023-09-19T07:36:01;5.55;;;4.07;;
60076;SDS011;45950;45.208;20.374;2023-09-19T07:38:27;6.82;;;5.20;;
60076;SDS011;45950;45.208;20.374;2023-09-19T07:40:59;8.07;;;4.78;;
60076;SDS011;45950;45.208;20.374;2023-09-19T07:43:27;7.55;;;5.07;;
60076;SDS011;45950;45.208;20.374;2023-09-19T07:45:53;8.25;;;4.80;;
60076;SDS011;45950;45.208;20.374;2023-09-19T07:48:20;7.13;;;5.88;;
60076;SDS011;45950;45.208;20.374;2023-09-19T07:50:46;7.53;;;4.95;;
60076;SDS011;45950;45.208;20.374;2023-09-19T07:53:13;7.85;;;4.72;;
60076;SDS011;45950;45.208;20.374;2023-09-19T07:55:42;7.22;;;4.78;;
60076;SDS011;45950;45.208;20.374;2023-09-19T07:58:08;9.70;;;5.05;;
60076;SDS011;45950;45.208;20.374;2023-09-19T08:00:36;9.32;;;5.57;;
60076;SDS011;45950;45.208;20.374;2023-09-19T08:03:04;9.35;;;5.10;;
60076;SDS011;45950;45.208;20.374;2023-09-19T08:05:31;6.93;;;5.13;;
60076;SDS011;45950;45.208;20.374;2023-09-19T08:07:58;5.93;;;4.60;;
60076;SDS011;45950;45.208;20.374;2023-09-19T08:10:25;13.32;;;6.15;;
60076;SDS011;45950;45.208;20.374;2023-09-19T08:12:52;6.72;;;5.20;;
60076;SDS011;45950;45.208;20.374;2023-09-19T08:15:24;9.52;;;5.22;;
60076;SDS011;45950;45.208;20.374;2023-09-19T08:17:52;10.48;;;5.78;;
60076;SDS011;45950;45.208;20.374;2023-09-19T08:20:18;10.02;;;5.50;;
60076;SDS011;45950;45.208;20.374;2023-09-19T08:22:46;9.15;;;5.63;;
60076;SDS011;45950;45.208;20.374;2023-09-19T08:25:13;8.10;;;5.28;;
60076;SDS011;45950;45.208;20.374;2023-09-19T08:27:41;8.55;;;5.75;;
60076;SDS011;45950;45.208;20.374;2023-09-19T08:30:15;12.35;;;5.25;;
60076;SDS011;45950;45.208;20.374;2023-09-19T08:32:43;10.68;;;4.93;;
60076;SDS011;45950;45.208;20.374;2023-09-19T08:35:11;10.10;;;5.82;;
60076;SDS011;45950;45.208;20.374;2023-09-19T08:37:41;9.32;;;5.30;;
60076;SDS011;45950;45.208;20.374;2023-09-19T08:40:10;6.68;;;5.72;;
60076;SDS011;45950;45.208;20.374;2023-09-19T08:42:47;9.65;;;5.45;;
60076;SDS011;45950;45.208;20.374;2023-09-19T08:45:14;10.70;;;5.53;;
60076;SDS011;45950;45.208;20.374;2023-09-19T08:47:45;9.13;;;5.20;;
60076;SDS011;45950;45.208;20.374;2023-09-19T08:50:16;7.95;;;5.18;;
60076;SDS011;45950;45.208;20.374;2023-09-19T08:52:49;14.50;;;6.03;;
60076;SDS011;45950;45.208;20.374;2023-09-19T08:55:18;9.55;;;4.90;;
60076;SDS011;45950;45.208;20.374;2023-09-19T08:57:47;9.98;;;5.28;;
60076;SDS011;45950;45.208;20.374;2023-09-19T09:00:17;7.03;;;4.78;;
60076;SDS011;45950;45.208;20.374;2023-09-19T09:02:46;7.53;;;4.95;;
60076;SDS011;45950;45.208;20.374;2023-09-19T09:05:14;10.75;;;5.78;;
60076;SDS011;45950;45.208;20.374;2023-09-19T09:07:47;8.80;;;5.35;;
60076;SDS011;45950;45.208;20.374;2023-09-19T09:10:15;8.88;;;5.38;;
60076;SDS011;45950;45.208;20.374;2023-09-19T09:12:42;9.70;;;5.80;;
60076;SDS011;45950;45.208;20.374;2023-09-19T09:15:09;19.20;;;7.78;;
60076;SDS011;45950;45.208;20.374;2023-09-19T09:17:37;11.00;;;6.18;;
60076;SDS011;45950;45.208;20.374;2023-09-19T09:20:04;10.20;;;5.32;;
60076;SDS011;45950;45.208;20.374;2023-09-19T09:22:36;8.10;;;5.63;;
60076;SDS011;45950;45.208;20.374;2023-09-19T09:25:05;8.85;;;6.15;;
60076;SDS011;45950;45.208;20.374;2023-09-19T09:27:31;10.07;;;6.00;;
60076;SDS011;45950;45.208;20.374;2023-09-19T09:29:59;8.68;;;5.28;;
60076;SDS011;45950;45.208;20.374;2023-09-19T09:32:26;7.70;;;5.03;;
60076;SDS011;45950;45.208;20.374;2023-09-19T09:34:54;8.65;;;5.32;;
60076;SDS011;45950;45.208;20.374;2023-09-19T09:37:23;8.55;;;5.75;;
60076;SDS011;45950;45.208;20.374;2023-09-19T09:39:55;11.10;;;6.32;;
60076;SDS011;45950;45.208;20.374;2023-09-19T09:42:30;9.73;;;5.57;;
60076;SDS011;45950;45.208;20.374;2023-09-19T09:45:13;14.15;;;5.30;;
60076;SDS011;45950;45.208;20.374;2023-09-19T09:47:44;7.80;;;5.10;;
60076;SDS011;45950;45.208;20.374;2023-09-19T09:50:28;8.93;;;5.35;;
60076;SDS011;45950;45.208;20.374;2023-09-19T09:53:05;9.05;;;5.72;;
60076;SDS011;45950;45.208;20.374;2023-09-19T09:58:24;11.90;;;6.22;;
60076;SDS011;45950;45.208;20.374;2023-09-19T10:00:54;9.13;;;5.13;;
60076;SDS011;45950;45.208;20.374;2023-09-19T10:03:30;18.63;;;6.80;;
60076;SDS011;45950;45.208;20.374;2023-09-19T10:05:59;9.75;;;4.82;;
60076;SDS011;45950;45.208;20.374;2023-09-19T10:08:34;8.27;;;5.13;;
60076;SDS011;45950;45.208;20.374;2023-09-19T10:11:02;10.35;;;5.10;;
60076;SDS011;45950;45.208;20.374;2023-09-19T10:13:42;9.45;;;5.40;;
60076;SDS011;45950;45.208;20.374;2023-09-19T10:16:11;9.90;;;5.47;;
60076;SDS011;45950;45.208;20.374;2023-09-19T10:18:39;10.02;;;4.97;;
60076;SDS011;45950;45.208;20.374;2023-09-19T10:21:09;8.60;;;4.70;;
60076;SDS011;45950;45.208;20.374;2023-09-19T10:23:37;10.63;;;5.30;;
60076;SDS011;45950;45.208;20.374;2023-09-19T10:26:04;9.93;;;5.47;;
60076;SDS011;45950;45.208;20.374;2023-09-19T10:28:31;6.40;;;4.88;;
60076;SDS011;45950;45.208;20.374;2023-09-19T10:30:59;12.77;;;6.35;;
60076;SDS011;45950;45.208;20.374;2023-09-19T10:33:37;16.15;;;5.47;;
60076;SDS011;45950;45.208;20.374;2023-09-19T10:36:06;11.23;;;5.50;;
60076;SDS011;45950;45.208;20.374;2023-09-19T10:38:35;10.57;;;4.63;;
60076;SDS011;45950;45.208;20.374;2023-09-19T10:41:06;9.25;;;5.28;;
60076;SDS011;45950;45.208;20.374;2023-09-19T10:43:33;22.50;;;6.75;;
60076;SDS011;45950;45.208;20.374;2023-09-19T10:46:03;8.00;;;4.97;;
60076;SDS011;45950;45.208;20.374;2023-09-19T10:48:31;7.72;;;4.80;;
60076;SDS011;45950;45.208;20.374;2023-09-19T10:51:05;9.27;;;4.80;;
60076;SDS011;45950;45.208;20.374;2023-09-19T10:53:39;11.70;;;5.63;;
60076;SDS011;45950;45.208;20.374;2023-09-19T10:56:07;8.98;;;5.50;;
60076;SDS011;45950;45.208;20.374;2023-09-19T10:58:42;10.07;;;4.57;;
60076;SDS011;45950;45.208;20.374;2023-09-19T11:01:40;18.10;;;5.93;;
60076;SDS011;45950;45.208;20.374;2023-09-19T11:04:20;9.43;;;4.70;;
60076;SDS011;45950;45.208;20.374;2023-09-19T11:06:56;14.60;;;5.28;;
60076;SDS011;45950;45.208;20.374;2023-09-19T11:15:06;8.45;;;4.63;;
60076;SDS011;45950;45.208;20.374;2023-09-19T11:17:35;11.65;;;5.15;;
60076;SDS011;45950;45.208;20.374;2023-09-19T11:20:21;10.93;;;4.72;;
60076;SDS011;45950;45.208;20.374;2023-09-19T11:23:19;8.23;;;4.90;;
60076;SDS011;45950;45.208;20.374;2023-09-19T11:25:49;9.90;;;4.68;;
60076;SDS011;45950;45.208;20.374;2023-09-19T11:28:30;9.00;;;4.97;;
60076;SDS011;45950;45.208;20.374;2023-09-19T11:30:57;10.98;;;5.55;;
60076;SDS011;45950;45.208;20.374;2023-09-19T11:33:26;7.53;;;4.10;;
60076;SDS011;45950;45.208;20.374;2023-09-19T11:35:58;9.93;;;4.72;;
60076;SDS011;45950;45.208;20.374;2023-09-19T11:46:52;9.98;;;4.82;;
60076;SDS011;45950;45.208;20.374;2023-09-19T11:49:26;15.60;;;6.20;;
60076;SDS011;45950;45.208;20.374;2023-09-19T11:51:55;13.35;;;6.13;;
60076;SDS011;45950;45.208;20.374;2023-09-19T11:54:22;19.58;;;7.18;;
60076;SDS011;45950;45.208;20.374;2023-09-19T11:56:52;13.23;;;6.28;;
60076;SDS011;45950;45.208;20.374;2023-09-19T11:59:19;16.60;;;7.00;;
60076;SDS011;45950;45.208;20.374;2023-09-19T12:01:50;16.60;;;6.75;;
60076;SDS011;45950;45.208;20.374;2023-09-19T12:04:34;17.13;;;5.65;;
60076;SDS011;45950;45.208;20.374;2023-09-19T12:07:03;11.93;;;5.60;;
60076;SDS011;45950;45.208;20.374;2023-09-19T12:09:31;15.43;;;6.18;;
60076;SDS011;45950;45.208;20.374;2023-09-19T12:11:57;14.73;;;4.18;;
60076;SDS011;45950;45.208;20.374;2023-09-19T12:14:24;13.07;;;5.07;;
60076;SDS011;45950;45.208;20.374;2023-09-19T12:16:54;12.63;;;4.03;;
60076;SDS011;45950;45.208;20.374;2023-09-19T12:19:21;17.65;;;4.32;;
60076;SDS011;45950;45.208;20.374;2023-09-19T12:21:56;9.55;;;3.90;;
60076;SDS011;45950;45.208;20.374;2023-09-19T12:24:25;13.68;;;4.95;;
60076;SDS011;45950;45.208;20.374;2023-09-19T12:26:59;13.45;;;4.00;;
60076;SDS011;45950;45.208;20.374;2023-09-19T12:29:29;13.27;;;4.43;;
60076;SDS011;45950;45.208;20.374;2023-09-19T12:31:56;11.68;;;3.90;;
60076;SDS011;45950;45.208;20.374;2023-09-19T12:34:24;12.10;;;4.15;;
60076;SDS011;45950;45.208;20.374;2023-09-19T12:39:39;7.15;;;3.30;;
60076;SDS011;45950;45.208;20.374;2023-09-19T12:42:07;13.82;;;4.47;;
60076;SDS011;45950;45.208;20.374;2023-09-19T12:44:34;11.30;;;3.42;;
60076;SDS011;45950;45.208;20.374;2023-09-19T12:47:07;14.65;;;3.63;;
60076;SDS011;45950;45.208;20.374;2023-09-19T12:52:37;14.32;;;3.80;;
60076;SDS011;45950;45.208;20.374;2023-09-19T12:55:05;12.25;;;3.83;;
60076;SDS011;45950;45.208;20.374;2023-09-19T12:57:33;6.97;;;3.30;;
60076;SDS011;45950;45.208;20.374;2023-09-19T13:00:00;9.20;;;3.40;;
60076;SDS011;45950;45.208;20.374;2023-09-19T13:02:32;12.40;;;3.13;;
60076;SDS011;45950;45.208;20.374;2023-09-19T13:04:59;8.80;;;3.27;;
60076;SDS011;45950;45.208;20.374;2023-09-19T13:07:42;8.25;;;3.50;;
60076;SDS011;45950;45.208;20.374;2023-09-19T13:10:12;10.15;;;3.30;;
60076;SDS011;45950;45.208;20.374;2023-09-19T13:12:41;13.07;;;3.88;;
60076;SDS011;45950;45.208;20.374;2023-09-19T13:15:09;8.90;;;2.50;;
60076;SDS011;45950;45.208;20.374;2023-09-19T13:17:44;9.18;;;3.10;;
60076;SDS011;45950;45.208;20.374;2023-09-19T13:20:20;11.77;;;3.33;;
60076;SDS011;45950;45.208;20.374;2023-09-19T13:22:50;7.88;;;3.25;;
60076;SDS011;45950;45.208;20.374;2023-09-19T13:28:19;11.35;;;3.08;;
60076;SDS011;45950;45.208;20.374;2023-09-19T13:30:45;9.95;;;2.80;;
60076;SDS011;45950;45.208;20.374;2023-09-19T13:33:13;8.57;;;2.67;;
60076;SDS011;45950;45.208;20.374;2023-09-19T13:35:46;12.02;;;2.70;;
60076;SDS011;45950;45.208;20.374;2023-09-19T13:38:13;10.15;;;2.85;;
60076;SDS011;45950;45.208;20.374;2023-09-19T13:40:40;6.80;;;2.67;;
60076;SDS011;45950;45.208;20.374;2023-09-19T13:43:14;8.98;;;2.85;;
60076;SDS011;45950;45.208;20.374;2023-09-19T13:45:42;5.97;;;2.45;;
60076;SDS011;45950;45.208;20.374;2023-09-19T13:48:09;6.80;;;1.95;;
60076;SDS011;45950;45.208;20.374;2023-09-19T13:50:36;9.52;;;2.78;;
60076;SDS011;45950;45.208;20.374;2023-09-19T13:53:07;6.03;;;2.22;;
60076;SDS011;45950;45.208;20.374;2023-09-19T13:55:34;7.20;;;2.53;;
60076;SDS011;45950;45.208;20.374;2023-09-19T13:58:00;7.45;;;2.35;;
60076;SDS011;45950;45.208;20.374;2023-09-19T14:00:27;6.47;;;3.05;;
60076;SDS011;45950;45.208;20.374;2023-09-19T14:02:55;8.88;;;2.60;;
60076;SDS011;45950;45.208;20.374;2023-09-19T14:05:22;5.45;;;2.00;;
60076;SDS011;45950;45.208;20.374;2023-09-19T14:07:48;7.13;;;2.53;;
60076;SDS011;45950;45.208;20.374;2023-09-19T14:13:13;9.05;;;2.45;;
60076;SDS011;45950;45.208;20.374;2023-09-19T14:15:40;4.40;;;1.80;;
60076;SDS011;45950;45.208;20.374;2023-09-19T14:18:12;7.13;;;1.88;;
60076;SDS011;45950;45.208;20.374;2023-09-19T14:20:38;6.15;;;2.63;;
60076;SDS011;45950;45.208;20.374;2023-09-19T14:23:06;6.40;;;1.98;;
60076;SDS011;45950;45.208;20.374;2023-09-19T14:25:34;5.65;;;2.30;;
60076;SDS011;45950;45.208;20.374;2023-09-19T14:28:00;4.75;;;1.88;;
60076;SDS011;45950;45.208;20.374;2023-09-19T14:30:27;6.32;;;1.80;;
60076;SDS011;45950;45.208;20.374;2023-09-19T14:33:01;9.13;;;2.22;;
60076;SDS011;45950;45.208;20.374;2023-09-19T14:35:29;5.97;;;2.10;;
60076;SDS011;45950;45.208;20.374;2023-09-19T14:37:57;6.05;;;2.30;;
60076;SDS011;45950;45.208;20.374;2023-09-19T14:40:23;3.85;;;1.77;;
60076;SDS011;45950;45.208;20.374;2023-09-19T14:42:51;4.80;;;1.50;;
60076;SDS011;45950;45.208;20.374;2023-09-19T14:48:20;5.85;;;1.77;;
60076;SDS011;45950;45.208;20.374;2023-09-19T14:50:51;7.63;;;2.15;;
60076;SDS011;45950;45.208;20.374;2023-09-19T14:53:18;5.22;;;1.85;;
60076;SDS011;45950;45.208;20.374;2023-09-19T14:55:52;5.45;;;1.80;;
60076;SDS011;45950;45.208;20.374;2023-09-19T14:58:20;9.05;;;2.20;;
60076;SDS011;45950;45.208;20.374;2023-09-19T15:00:46;5.05;;;1.55;;
60076;SDS011;45950;45.208;20.374;2023-09-19T15:03:13;6.88;;;2.25;;
60076;SDS011;45950;45.208;20.374;2023-09-19T15:05:39;8.25;;;2.15;;
60076;SDS011;45950;45.208;20.374;2023-09-19T15:08:07;4.22;;;1.50;;
60076;SDS011;45950;45.208;20.374;2023-09-19T15:10:34;5.10;;;1.88;;
60076;SDS011;45950;45.208;20.374;2023-09-19T15:13:01;4.82;;;1.63;;
60076;SDS011;45950;45.208;20.374;2023-09-19T15:15:27;4.72;;;1.45;;
60076;SDS011;45950;45.208;20.374;2023-09-19T15:17:54;4.85;;;1.42;;
60076;SDS011;45950;45.208;20.374;2023-09-19T15:20:20;4.53;;;1.55;;
60076;SDS011;45950;45.208;20.374;2023-09-19T15:22:47;4.75;;;2.40;;
60076;SDS011;45950;45.208;20.374;2023-09-19T15:28:06;5.00;;;2.00;;
60076;SDS011;45950;45.208;20.374;2023-09-19T15:30:36;4.30;;;1.67;;
60076;SDS011;45950;45.208;20.374;2023-09-19T15:33:03;4.03;;;1.63;;
60076;SDS011;45950;45.208;20.374;2023-09-19T15:35:30;3.75;;;1.67;;
60076;SDS011;45950;45.208;20.374;2023-09-19T15:37:56;6.63;;;1.80;;
60076;SDS011;45950;45.208;20.374;2023-09-19T15:40:24;5.63;;;1.70;;